Time;durP1;ratioP1;P1;durP2;ratioP2;P2;SDS_P1;SDS_P2;PMS_P1;PMS_P2;Temp;Humidity;BMP_temperature;BMP_pressure;BME280_temperature;BME280_humidity;BME280_pressure;Samples;Min_cycle;Max_cycle;Signal;HPM_P1;HPM_P2
2021/10/23 00:00:37;;;;;;;2.75;1.70;;;;;;;8.91;70.33;97403.97;5019515;28;20046;-77
2021/10/23 00:03:04;;;;;;;4.95;2.13;;;;;;;8.91;71.47;97417.00;5016010;28;20496;-77
2021/10/23 00:05:32;;;;;;;4.72;2.15;;;;;;;8.87;68.54;97416.47;5016372;28;20097;-78
2021/10/23 00:08:01;;;;;;;6.03;2.15;;;;;;;8.85;68.75;97415.84;5016781;28;20058;-78
2021/10/23 00:10:29;;;;;;;4.00;1.73;;;;;;;8.81;66.97;97424.06;5022527;28;20068;-75
2021/10/23 00:12:56;;;;;;;3.33;1.70;;;;;;;8.82;71.24;97420.50;5029705;28;20057;-75
2021/10/23 00:15:24;;;;;;;4.30;2.35;;;;;;;8.87;73.17;97413.88;5022079;28;20116;-76
2021/10/23 00:17:52;;;;;;;8.02;2.20;;;;;;;8.90;74.01;97423.19;5016836;28;20062;-75
2021/10/23 00:20:20;;;;;;;5.22;2.15;;;;;;;8.95;74.70;97420.13;5015594;28;20126;-75
2021/10/23 00:22:48;;;;;;;5.10;1.90;;;;;;;8.94;71.65;97419.28;5016237;28;20050;-75
2021/10/23 00:25:18;;;;;;;2.58;1.70;;;;;;;8.90;67.91;97417.97;5015908;28;20054;-78
2021/10/23 00:27:46;;;;;;;4.18;2.03;;;;;;;8.90;68.40;97422.34;5015923;28;20050;-78
2021/10/23 00:30:14;;;;;;;3.70;1.80;;;;;;;8.89;67.53;97426.72;5015419;28;20045;-79
2021/10/23 00:32:42;;;;;;;4.90;1.48;;;;;;;8.85;66.10;97426.25;5015818;28;20056;-78
2021/10/23 00:35:10;;;;;;;3.08;1.80;;;;;;;8.88;70.50;97425.13;5015736;28;20049;-78
2021/10/23 00:37:37;;;;;;;2.97;1.30;;;;;;;8.91;70.32;97427.41;5015552;28;20052;-78
2021/10/23 00:40:06;;;;;;;3.88;1.90;;;;;;;8.87;67.64;97429.47;5014985;28;20058;-78
2021/10/23 00:42:35;;;;;;;5.32;1.77;;;;;;;8.84;67.62;97427.19;5015671;28;20416;-78
2021/10/23 00:45:03;;;;;;;2.45;1.58;;;;;;;8.80;66.82;97438.03;5015627;28;20552;-78
2021/10/23 00:47:31;;;;;;;5.75;2.38;;;;;;;8.77;66.08;97438.34;5015609;28;20046;-77
2021/10/23 00:49:58;;;;;;;3.58;2.00;;;;;;;8.78;70.09;97440.78;5015081;28;20487;-78
2021/10/23 00:52:26;;;;;;;5.38;1.88;;;;;;;8.82;71.38;97436.13;5014858;28;20042;-77
2021/10/23 00:54:53;;;;;;;3.53;1.70;;;;;;;8.84;68.60;97439.38;5015251;28;20053;-78
2021/10/23 00:57:21;;;;;;;5.38;2.20;;;;;;;8.88;70.21;97440.72;5015449;28;20076;-78
2021/10/23 00:59:50;;;;;;;5.35;2.22;;;;;;;8.92;72.87;97439.47;5015146;28;20045;-78
2021/10/23 01:02:17;;;;;;;4.47;2.67;;;;;;;8.93;70.83;97442.88;5015161;28;20049;-77
2021/10/23 01:04:45;;;;;;;7.07;1.95;;;;;;;8.94;71.92;97440.09;5015187;28;20054;-78
2021/10/23 01:07:13;;;;;;;8.65;3.28;;;;;;;8.96;72.93;97440.78;5014962;28;20049;-78
2021/10/23 01:09:41;;;;;;;5.13;2.58;;;;;;;8.92;68.87;97446.44;5014938;28;20053;-78
2021/10/23 01:12:10;;;;;;;4.20;2.10;;;;;;;8.88;70.49;97448.53;5014964;28;20057;-78
2021/10/23 01:14:39;;;;;;;3.28;2.00;;;;;;;8.91;72.94;97450.81;5014634;28;20602;-78
2021/10/23 01:17:09;;;;;;;7.35;2.30;;;;;;;8.93;75.08;97442.88;5015139;28;20064;-78
2021/10/23 01:19:37;;;;;;;4.70;2.28;;;;;;;8.91;74.84;97450.00;5014314;28;20049;-78
2021/10/23 01:22:06;;;;;;;7.65;2.33;;;;;;;8.89;75.02;97446.75;5015173;28;20054;-77
2021/10/23 01:24:33;;;;;;;5.63;1.98;;;;;;;8.89;75.05;97447.56;5015021;28;20049;-78
2021/10/23 01:27:01;;;;;;;7.28;2.22;;;;;;;8.85;71.31;97451.41;5014941;28;20120;-78
2021/10/23 01:29:28;;;;;;;5.30;1.55;;;;;;;8.79;69.01;97454.59;5014331;28;20069;-79
2021/10/23 01:31:56;;;;;;;3.80;1.90;;;;;;;8.76;72.35;97452.31;5014446;28;20050;-78
2021/10/23 01:34:26;;;;;;;4.38;1.80;;;;;;;8.74;69.38;97460.25;5014388;28;21225;-78
2021/10/23 01:36:56;;;;;;;9.13;2.58;;;;;;;8.77;72.67;97454.78;5014651;28;20053;-77
2021/10/23 01:39:26;;;;;;;4.95;2.25;;;;;;;8.76;74.80;97457.53;5014500;28;20424;-78
2021/10/23 01:41:54;;;;;;;5.38;2.20;;;;;;;8.75;72.41;97466.31;5014891;28;20046;-78
2021/10/23 01:44:26;;;;;;;3.00;1.88;;;;;;;8.73;73.17;97468.22;5014470;28;20057;-77
2021/10/23 01:46:53;;;;;;;7.28;2.53;;;;;;;8.72;75.10;97467.41;5014584;28;20066;-78
2021/10/23 01:49:21;;;;;;;5.28;2.40;;;;;;;8.70;74.01;97464.13;5013995;28;20049;-78
2021/10/23 01:51:49;;;;;;;3.22;2.20;;;;;;;8.68;73.56;97465.25;5014455;28;20431;-77
2021/10/23 01:54:17;;;;;;;4.70;2.03;;;;;;;8.70;74.35;97463.31;5014556;28;20061;-77
2021/10/23 01:56:46;;;;;;;6.82;2.60;;;;;;;8.74;74.39;97465.47;5014326;28;20053;-78
2021/10/23 01:59:13;;;;;;;4.95;2.22;;;;;;;8.77;75.76;97459.16;5013639;28;20050;-78
2021/10/23 02:01:41;;;;;;;6.07;2.95;;;;;;;8.80;76.02;97453.66;5014281;28;20057;-78
2021/10/23 02:04:08;;;;;;;6.45;2.05;;;;;;;8.75;73.04;97450.69;5013066;28;20516;-78
2021/10/23 02:06:36;;;;;;;4.72;2.50;;;;;;;8.77;76.01;97461.78;5014404;28;20056;-78
2021/10/23 02:09:04;;;;;;;4.20;2.50;;;;;;;8.81;76.06;97460.47;5013835;28;20054;-78
2021/10/23 02:11:31;;;;;;;5.57;2.20;;;;;;;8.77;75.91;97462.59;5013985;28;20049;-78
2021/10/23 02:14:00;;;;;;;3.50;2.08;;;;;;;8.80;77.46;97466.66;5013572;28;20512;-76
2021/10/23 02:16:27;;;;;;;5.93;2.40;;;;;;;8.82;78.12;97468.16;5013988;28;20072;-78
2021/10/23 02:18:55;;;;;;;4.88;2.35;;;;;;;8.83;77.77;97461.16;5013512;28;20046;-78
2021/10/23 02:21:22;;;;;;;4.88;1.95;;;;;;;8.79;75.33;97467.63;5013909;28;20069;-77
2021/10/23 02:23:50;;;;;;;4.38;2.20;;;;;;;8.81;75.69;97465.69;5013989;28;20050;-78
2021/10/23 02:26:17;;;;;;;4.68;2.20;;;;;;;8.81;76.15;97474.31;5013815;28;20053;-78
2021/10/23 02:28:45;;;;;;;5.18;2.45;;;;;;;8.79;76.10;97470.22;5013275;28;20054;-78
2021/10/23 02:31:14;;;;;;;4.50;1.83;;;;;;;8.74;75.08;97473.25;5013692;28;20052;-78
2021/10/23 02:33:41;;;;;;;5.65;2.17;;;;;;;8.74;75.09;97475.06;5013627;28;20077;-77
2021/10/23 02:36:09;;;;;;;4.95;3.20;;;;;;;8.73;76.02;97463.03;5013739;28;20053;-77
2021/10/23 02:38:36;;;;;;;7.68;2.40;;;;;;;8.68;72.45;97471.28;5013185;28;20056;-78
2021/10/23 02:41:04;;;;;;;3.88;2.22;;;;;;;8.65;72.97;97477.56;5013252;28;20141;-78
2021/10/23 02:43:32;;;;;;;5.20;2.25;;;;;;;8.69;75.10;97478.09;5013242;28;20558;-78
2021/10/23 02:45:59;;;;;;;4.13;2.20;;;;;;;8.71;75.21;97475.38;5013316;28;20050;-77
2021/10/23 02:48:28;;;;;;;4.15;2.40;;;;;;;8.74;76.91;97475.06;5013351;28;20058;-78
2021/10/23 02:50:56;;;;;;;4.25;2.25;;;;;;;8.76;76.32;97480.94;5013264;28;20050;-78
2021/10/23 02:53:24;;;;;;;5.72;2.53;;;;;;;8.74;72.82;97475.06;5013033;28;20061;-78
2021/10/23 02:55:51;;;;;;;5.75;2.58;;;;;;;8.69;71.65;97474.69;5013175;28;20057;-77
2021/10/23 02:58:19;;;;;;;5.90;2.75;;;;;;;8.64;71.58;97478.56;5013350;28;20045;-78
2021/10/23 03:00:46;;;;;;;5.80;2.58;;;;;;;8.69;75.43;97485.09;5012866;28;20046;-78
2021/10/23 03:03:14;;;;;;;9.18;2.88;;;;;;;8.73;76.64;97487.25;5012986;28;20050;-78
2021/10/23 03:05:43;;;;;;;8.10;3.67;;;;;;;8.76;76.98;97488.72;5013424;28;20061;-77
2021/10/23 03:08:11;;;;;;;3.83;2.35;;;;;;;8.78;75.95;97484.19;5013236;28;20050;-77
2021/10/23 03:10:38;;;;;;;5.45;2.55;;;;;;;8.76;75.56;97488.72;5012921;28;20061;-78
2021/10/23 03:13:06;;;;;;;4.80;2.67;;;;;;;8.76;76.67;97489.53;5012808;28;20046;-77
2021/10/23 03:15:33;;;;;;;5.93;2.22;;;;;;;8.77;75.31;97493.81;5012730;28;20069;-78
2021/10/23 03:18:01;;;;;;;6.07;2.25;;;;;;;8.80;76.05;97490.88;5013203;28;20109;-78
2021/10/23 03:20:28;;;;;;;4.20;2.05;;;;;;;8.82;76.72;97493.34;5012634;28;20049;-77
2021/10/23 03:22:57;;;;;;;4.30;2.47;;;;;;;8.82;77.25;97494.16;5013083;28;20285;-78
2021/10/23 03:25:24;;;;;;;4.78;2.17;;;;;;;8.83;75.12;97497.56;5013111;28;20061;-77
2021/10/23 03:27:52;;;;;;;6.63;2.33;;;;;;;8.84;76.39;97500.03;5012809;28;20054;-77
2021/10/23 03:30:19;;;;;;;5.75;2.20;;;;;;;8.87;75.96;97496.31;5012473;28;20431;-78
2021/10/23 03:32:47;;;;;;;6.38;1.92;;;;;;;8.88;75.89;97490.16;5012836;28;20046;-77
2021/10/23 03:35:14;;;;;;;8.80;4.05;;;;;;;8.90;75.12;97500.41;5012568;28;20062;-77
2021/10/23 03:37:42;;;;;;;8.00;3.53;;;;;;;8.91;76.12;97502.03;5012925;28;20053;-78
2021/10/23 03:40:11;;;;;;;7.55;3.08;;;;;;;8.92;77.38;97496.72;5012458;28;20049;-78
2021/10/23 03:42:39;;;;;;;5.78;2.80;;;;;;;8.93;77.43;97502.72;5012735;28;20058;-75
2021/10/23 03:45:07;;;;;;;8.05;2.45;;;;;;;8.91;75.49;97499.44;5012385;28;20046;-75
2021/10/23 03:47:34;;;;;;;2.90;1.60;;;;;;;8.89;74.04;97504.78;5012540;28;20060;-74
2021/10/23 03:50:04;;;;;;;4.18;2.10;;;;;;;8.89;75.64;97499.59;5012239;28;20519;-75
2021/10/23 03:52:32;;;;;;;4.85;2.63;;;;;;;8.91;75.31;97502.03;5012907;28;20054;-75
2021/10/23 03:54:59;;;;;;;3.95;2.03;;;;;;;8.91;76.03;97504.66;5012485;28;20050;-76
2021/10/23 03:57:28;;;;;;;4.72;2.70;;;;;;;8.85;74.31;97509.50;5012260;28;20053;-75
2021/10/23 03:59:56;;;;;;;7.57;2.17;;;;;;;8.81;73.20;97509.91;5012425;28;20053;-75
2021/10/23 04:02:24;;;;;;;6.05;2.25;;;;;;;8.85;75.96;97513.84;5022096;28;20388;-75
2021/10/23 04:04:51;;;;;;;4.25;2.42;;;;;;;8.88;77.07;97523.97;5027105;28;20073;-75
2021/10/23 04:07:19;;;;;;;5.93;2.08;;;;;;;8.92;77.62;97525.31;5022700;28;20046;-75
2021/10/23 04:09:46;;;;;;;7.30;3.78;;;;;;;8.94;78.05;97523.38;5012603;28;20052;-75
2021/10/23 04:12:14;;;;;;;6.72;2.90;;;;;;;8.95;77.25;97522.41;5012761;28;20499;-75
2021/10/23 04:14:43;;;;;;;6.15;2.30;;;;;;;8.91;73.81;97523.69;5011965;28;20046;-75
2021/10/23 04:17:10;;;;;;;6.20;2.70;;;;;;;8.88;73.59;97531.78;5012753;28;20058;-75
2021/10/23 04:19:38;;;;;;;7.03;3.30;;;;;;;8.85;75.30;97534.66;5012225;28;20057;-75
2021/10/23 04:22:05;;;;;;;5.68;2.08;;;;;;;8.83;73.36;97527.03;5015065;23;20050;-75
2021/10/23 04:24:32;;;;;;;3.15;1.92;;;;;;;8.80;72.52;97527.31;4992771;28;20047;-76
2021/10/23 04:27:00;;;;;;;4.38;2.47;;;;;;;8.84;75.10;97533.03;4994968;28;20101;-76
2021/10/23 04:29:27;;;;;;;5.05;2.15;;;;;;;8.89;76.52;97541.22;5002392;28;20050;-76
2021/10/23 04:31:56;;;;;;;7.88;2.95;;;;;;;8.91;75.50;97533.28;4997398;28;20065;-76
2021/10/23 04:34:24;;;;;;;4.30;2.47;;;;;;;8.90;76.96;97542.88;4996467;28;20046;-76
2021/10/23 04:36:51;;;;;;;4.47;2.42;;;;;;;8.92;77.80;97534.91;4996374;28;20058;-76
2021/10/23 04:39:19;;;;;;;4.28;2.10;;;;;;;8.88;75.79;97529.19;4996340;28;20061;-77
2021/10/23 04:41:47;;;;;;;4.32;2.67;;;;;;;8.82;72.79;97532.38;4996092;28;20054;-75
2021/10/23 04:44:14;;;;;;;7.25;2.40;;;;;;;8.83;75.46;97527.03;4996041;28;20069;-75
2021/10/23 04:46:41;;;;;;;6.88;2.47;;;;;;;8.90;77.18;97542.88;4995945;28;20054;-75
2021/10/23 04:49:10;;;;;;;5.82;2.70;;;;;;;8.92;77.99;97546.16;4995532;28;20431;-76
2021/10/23 04:51:38;;;;;;;6.20;2.60;;;;;;;8.94;78.38;97545.97;4995940;28;20053;-76
2021/10/23 04:54:06;;;;;;;6.40;2.42;;;;;;;8.97;78.59;97545.69;4995822;28;20046;-76
2021/10/23 04:56:34;;;;;;;4.38;2.63;;;;;;;8.98;78.47;97545.53;4995771;28;20194;-76
2021/10/23 04:59:02;;;;;;;6.47;2.35;;;;;;;8.96;76.69;97552.66;4995353;28;20054;-76
2021/10/23 05:01:29;;;;;;;4.85;2.22;;;;;;;8.94;75.63;97548.56;4995280;28;20050;-75
2021/10/23 05:03:57;;;;;;;4.93;2.40;;;;;;;8.94;76.18;97554.59;4995733;28;20089;-75
2021/10/23 05:06:25;;;;;;;5.78;2.13;;;;;;;8.91;73.92;97554.09;4996972;28;20050;-74
2021/10/23 05:08:53;;;;;;;5.93;3.33;;;;;;;8.90;74.47;97549.84;4995764;28;20502;-76
2021/10/23 05:11:20;;;;;;;6.05;2.72;;;;;;;8.91;76.29;97548.88;4995884;28;20109;-75
2021/10/23 05:13:48;;;;;;;6.03;2.65;;;;;;;8.97;77.29;97548.31;4995543;28;20046;-75
2021/10/23 05:16:15;;;;;;;4.72;2.80;;;;;;;8.99;77.16;97547.19;4995497;28;20061;-74
2021/10/23 05:18:48;;;;;;;4.15;1.88;;;;;;;8.96;73.57;97551.84;4994738;28;20058;-76
2021/10/23 05:21:16;;;;;;;4.38;2.08;;;;;;;8.93;74.33;97552.97;4995994;28;20053;-76
2021/10/23 05:23:45;;;;;;;7.88;2.67;;;;;;;8.91;72.05;97554.91;4995725;28;20054;-75
2021/10/23 05:26:13;;;;;;;3.20;1.95;;;;;;;8.89;73.52;97562.03;4995257;28;20069;-75
2021/10/23 05:28:40;;;;;;;6.70;2.60;;;;;;;8.89;75.95;97562.03;4994971;28;20050;-74
2021/10/23 05:31:08;;;;;;;8.55;2.67;;;;;;;8.89;75.52;97562.03;4994993;28;20058;-75
2021/10/23 05:33:36;;;;;;;6.72;2.80;;;;;;;8.93;76.86;97557.38;4996451;28;20050;-76
2021/10/23 05:36:03;;;;;;;5.18;2.38;;;;;;;8.97;77.22;97559.53;4991922;28;20066;-76
2021/10/23 05:38:31;;;;;;;3.65;2.53;;;;;;;8.93;75.70;97552.97;4994191;28;20105;-75
2021/10/23 05:41:00;;;;;;;8.32;2.80;;;;;;;8.92;77.65;97561.75;5012835;28;20466;-74
2021/10/23 05:43:28;;;;;;;5.93;3.08;;;;;;;8.95;78.91;97566.66;4993784;28;20045;-76
2021/10/23 05:45:55;;;;;;;6.07;2.72;;;;;;;8.98;79.33;97557.72;4993116;28;20366;-74
2021/10/23 05:48:23;;;;;;;6.68;3.03;;;;;;;8.98;79.05;97561.13;4994877;28;20050;-75
2021/10/23 05:50:51;;;;;;;4.07;2.78;;;;;;;8.99;78.56;97570.59;4994860;28;20061;-76
2021/10/23 05:53:18;;;;;;;11.15;3.17;;;;;;;8.98;78.81;97571.56;4994481;28;20050;-76
2021/10/23 05:55:46;;;;;;;6.65;3.17;;;;;;;8.98;77.73;97575.94;4994726;28;20049;-75
2021/10/23 05:58:15;;;;;;;4.85;3.05;;;;;;;8.98;78.58;97586.34;4994381;28;20054;-75
2021/10/23 06:00:49;;;;;;;6.35;2.67;;;;;;;8.98;77.69;97587.16;4994310;28;20500;-77
2021/10/23 06:03:20;;;;;;;7.22;2.63;;;;;;;8.95;75.86;97584.88;4987891;28;20471;-76
2021/10/23 06:05:48;;;;;;;3.80;1.75;;;;;;;8.88;74.37;97594.22;4994433;28;20420;-75
2021/10/23 06:08:15;;;;;;;3.83;2.40;;;;;;;8.89;76.72;97592.44;4994006;28;20501;-75
2021/10/23 06:10:43;;;;;;;5.50;2.58;;;;;;;8.91;77.79;97608.72;4993723;28;20061;-76
2021/10/23 06:13:11;;;;;;;6.18;2.65;;;;;;;8.90;77.15;97605.31;4994326;28;20054;-76
2021/10/23 06:15:40;;;;;;;7.18;2.80;;;;;;;8.92;77.71;97606.00;4994034;28;20428;-75
2021/10/23 06:18:13;;;;;;;3.83;2.42;;;;;;;8.92;75.25;97613.78;4989611;28;20054;-75
2021/10/23 06:20:40;;;;;;;6.88;2.58;;;;;;;8.92;76.89;97616.41;4993771;28;20050;-76
2021/10/23 06:23:08;;;;;;;6.40;2.78;;;;;;;8.93;76.31;97619.81;4993510;28;20050;-74
2021/10/23 06:25:35;;;;;;;3.08;2.78;;;;;;;8.92;77.03;97621.59;4994039;28;20058;-75
2021/10/23 06:28:03;;;;;;;4.60;2.20;;;;;;;8.91;75.58;97621.75;4997018;28;20061;-75
2021/10/23 06:30:31;;;;;;;5.68;2.72;;;;;;;8.94;77.89;97622.25;4998049;28;20053;-78
2021/10/23 06:33:00;;;;;;;4.85;2.65;;;;;;;8.92;74.70;97629.41;4996111;28;20061;-76
2021/10/23 06:35:28;;;;;;;4.53;2.70;;;;;;;8.90;76.40;97641.75;4993880;28;20050;-78
2021/10/23 06:37:56;;;;;;;7.25;3.38;;;;;;;8.91;76.55;97638.16;4995461;28;20050;-77
2021/10/23 06:40:24;;;;;;;4.50;2.83;;;;;;;8.87;74.85;97636.81;4996733;28;20043;-77
2021/10/23 06:42:51;;;;;;;4.45;2.60;;;;;;;8.81;73.09;97642.59;4996885;28;20053;-74
2021/10/23 06:45:19;;;;;;;7.68;2.92;;;;;;;8.78;72.27;97653.31;4993637;28;20053;-79
2021/10/23 06:47:46;;;;;;;9.10;3.40;;;;;;;8.79;74.02;97660.97;4994143;28;20055;-75
2021/10/23 06:50:15;;;;;;;5.95;3.17;;;;;;;8.78;72.68;97667.13;4992996;28;20054;-76
2021/10/23 06:52:43;;;;;;;5.45;2.95;;;;;;;8.81;75.97;97663.41;4976112;28;20069;-76
2021/10/23 06:55:11;;;;;;;5.30;3.20;;;;;;;8.85;76.16;97669.97;4993804;28;20046;-76
2021/10/23 06:57:38;;;;;;;4.65;2.72;;;;;;;8.84;73.87;97681.34;4993753;28;20452;-75
2021/10/23 07:00:08;;;;;;;9.25;3.90;;;;;;;8.77;73.45;97683.72;4993500;28;20416;-76
2021/10/23 07:02:39;;;;;;;4.85;3.75;;;;;;;8.79;76.14;97670.53;4993557;28;20054;-80
2021/10/23 07:05:11;;;;;;;4.82;2.70;;;;;;;8.85;76.19;97668.19;4993311;28;20053;-76
2021/10/23 07:07:40;;;;;;;6.32;3.22;;;;;;;8.85;77.50;97667.38;4993369;28;20527;-76
2021/10/23 07:10:09;;;;;;;8.02;3.53;;;;;;;8.84;77.60;97661.34;4993080;28;20058;-76
2021/10/23 07:12:36;;;;;;;4.45;3.80;;;;;;;8.84;77.70;97658.75;4993102;28;20053;-76
2021/10/23 07:15:05;;;;;;;4.47;2.90;;;;;;;8.83;74.64;97653.69;4993486;28;20046;-75
2021/10/23 07:17:32;;;;;;;6.65;3.78;;;;;;;8.83;73.45;97646.72;4993437;28;20562;-77
2021/10/23 07:20:00;;;;;;;7.20;3.58;;;;;;;8.81;71.91;97645.19;4993097;28;20050;-76
2021/10/23 07:22:27;;;;;;;5.57;3.33;;;;;;;8.74;71.94;97652.75;4993076;28;20046;-75
2021/10/23 07:24:56;;;;;;;8.57;3.53;;;;;;;8.68;70.92;97662.91;4993353;28;20050;-74
2021/10/23 07:27:23;;;;;;;9.07;3.20;;;;;;;8.60;71.34;97666.25;4993030;28;20065;-76
2021/10/23 07:29:51;;;;;;;7.97;3.30;;;;;;;8.54;71.36;97662.44;4992652;28;20061;-75
2021/10/23 07:32:19;;;;;;;6.78;3.13;;;;;;;8.53;71.26;97667.78;4992848;28;20050;-75
2021/10/23 07:34:46;;;;;;;7.45;3.63;;;;;;;8.54;71.19;97678.03;4993218;28;20057;-75
2021/10/23 07:37:13;;;;;;;6.55;3.60;;;;;;;8.58;72.25;97668.19;4993094;28;20054;-75
2021/10/23 07:39:41;;;;;;;9.43;4.20;;;;;;;8.65;71.83;97667.44;4992926;28;20050;-75
2021/10/23 07:42:10;;;;;;;5.10;3.85;;;;;;;8.78;71.71;97674.94;4994302;28;20054;-74
2021/10/23 07:44:38;;;;;;;8.52;4.20;;;;;;;8.89;71.36;97681.72;4992719;28;20515;-74
2021/10/23 07:47:05;;;;;;;11.50;4.60;;;;;;;8.99;71.47;97686.91;4992750;28;20055;-75
2021/10/23 07:49:33;;;;;;;11.40;4.25;;;;;;;9.07;70.90;97690.41;4992522;28;20062;-76
2021/10/23 07:52:00;;;;;;;12.10;4.78;;;;;;;9.15;70.82;97700.09;4992578;28;20058;-78
2021/10/23 07:54:28;;;;;;;14.40;6.10;;;;;;;9.23;71.84;97704.56;4992203;28;20497;-75
2021/10/23 07:56:57;;;;;;;9.93;4.90;;;;;;;9.34;74.28;97704.38;4992516;28;20053;-78
2021/10/23 07:59:26;;;;;;;9.88;6.32;;;;;;;9.45;71.61;97703.34;4992944;28;20046;-76
2021/10/23 08:01:55;;;;;;;11.38;5.00;;;;;;;9.51;70.26;97707.13;4994988;28;20046;-79
2021/10/23 08:04:23;;;;;;;10.13;6.22;;;;;;;9.58;73.11;97710.81;4996955;28;20137;-77
2021/10/23 08:06:50;;;;;;;8.75;5.05;;;;;;;9.68;74.71;97714.13;4996770;28;20471;-77
2021/10/23 08:09:17;;;;;;;11.15;5.28;;;;;;;9.75;75.35;97715.19;4997694;28;20058;-78
2021/10/23 08:11:45;;;;;;;9.75;5.00;;;;;;;9.78;73.54;97717.50;4997252;28;20456;-77
2021/10/23 08:14:13;;;;;;;10.25;5.25;;;;;;;9.78;72.05;97709.69;4996538;28;20058;-76
2021/10/23 08:16:42;;;;;;;9.38;7.15;;;;;;;9.87;75.00;97707.97;4995975;28;20051;-75
2021/10/23 08:19:10;;;;;;;8.10;4.93;;;;;;;9.97;76.02;97705.25;4996267;28;20054;-76
2021/10/23 08:21:38;;;;;;;8.00;4.15;;;;;;;10.06;74.21;97707.00;4996039;28;20058;-77
2021/10/23 08:24:06;;;;;;;8.30;4.57;;;;;;;10.13;71.91;97717.63;4994936;28;20050;-75
2021/10/23 08:26:33;;;;;;;7.95;5.18;;;;;;;10.17;73.71;97718.97;4994843;28;20459;-77
2021/10/23 08:29:01;;;;;;;10.73;5.13;;;;;;;10.21;74.11;97730.69;4995812;28;20051;-78
2021/10/23 08:31:30;;;;;;;5.57;4.03;;;;;;;10.23;72.10;97721.78;4996471;28;20500;-77
2021/10/23 08:34:00;;;;;;;7.63;5.05;;;;;;;10.30;74.69;97730.66;4996928;28;20109;-77
2021/10/23 08:36:29;;;;;;;8.82;4.95;;;;;;;10.37;74.05;97736.09;4996015;28;20428;-77
2021/10/23 08:38:57;;;;;;;6.05;3.90;;;;;;;10.41;71.02;97736.63;4996037;28;20061;-76
2021/10/23 08:41:25;;;;;;;6.65;4.70;;;;;;;10.48;70.85;97732.41;4996704;28;20098;-77
2021/10/23 08:43:52;;;;;;;6.72;4.95;;;;;;;10.68;72.78;97738.25;4997004;28;20116;-77
2021/10/23 08:46:22;;;;;;;5.85;3.95;;;;;;;10.87;69.91;97737.22;4996679;28;20463;-77
2021/10/23 08:48:50;;;;;;;10.40;3.95;;;;;;;11.06;68.29;97741.34;4996838;28;20476;-78
2021/10/23 08:51:20;;;;;;;8.40;4.72;;;;;;;11.33;69.96;97732.50;4998469;28;20057;-77
2021/10/23 08:53:48;;;;;;;7.80;4.30;;;;;;;11.61;67.77;97721.78;4999930;28;20496;-77
2021/10/23 08:56:16;;;;;;;4.30;3.60;;;;;;;11.80;69.58;97731.13;4999568;28;20050;-77
2021/10/23 08:58:43;;;;;;;8.57;3.70;;;;;;;11.92;67.50;97722.03;4999476;28;20054;-77
2021/10/23 09:01:13;;;;;;;9.05;4.32;;;;;;;12.05;69.77;97721.56;5000086;28;20054;-77
2021/10/23 09:03:42;;;;;;;6.90;3.75;;;;;;;12.26;69.48;97729.69;5000130;28;20081;-79
2021/10/23 09:06:14;;;;;;;5.30;4.45;;;;;;;12.46;68.53;97724.13;5000002;28;20053;-77
2021/10/23 09:09:01;;;;;;;6.07;4.38;;;;;;;12.76;67.84;97728.63;4998721;28;20467;-78
2021/10/23 09:11:31;;;;;;;14.05;4.30;;;;;;;13.01;68.39;97731.19;4999331;28;20142;-78
2021/10/23 09:14:20;;;;;;;6.63;4.07;;;;;;;13.14;66.94;97739.34;4997709;28;20053;-77
2021/10/23 09:16:48;;;;;;;6.88;3.83;;;;;;;13.20;66.50;97743.06;4998458;28;20046;-77
2021/10/23 09:19:16;;;;;;;7.82;3.20;;;;;;;13.24;63.71;97744.34;4997847;28;20058;-77
2021/10/23 09:21:43;;;;;;;8.65;4.03;;;;;;;13.29;65.20;97743.88;4998082;28;20058;-76
2021/10/23 09:24:23;;;;;;;5.85;3.38;;;;;;;13.21;59.31;97744.72;4998379;28;20057;-79
2021/10/23 09:26:51;;;;;;;5.20;3.40;;;;;;;13.11;62.93;97739.66;4998822;28;20054;-78
2021/10/23 09:29:20;;;;;;;7.55;3.40;;;;;;;13.06;64.55;97741.97;4999517;28;20057;-78
2021/10/23 09:32:10;;;;;;;4.57;3.55;;;;;;;12.99;66.30;97741.84;5010307;28;20148;-78
2021/10/23 09:34:38;;;;;;;8.20;4.18;;;;;;;13.01;65.69;97746.91;5011182;28;20142;-78
2021/10/23 09:37:07;;;;;;;7.75;3.67;;;;;;;13.10;60.07;97752.94;5007566;28;20050;-79
2021/10/23 09:39:41;;;;;;;4.88;3.35;;;;;;;13.05;57.87;97755.22;5005163;28;20054;-78
2021/10/23 09:42:18;;;;;;;5.18;3.28;;;;;;;12.97;57.48;97763.94;5003829;28;20054;-78
2021/10/23 09:45:02;;;;;;;5.95;3.42;;;;;;;12.94;57.81;97749.41;5000059;28;20047;-77
2021/10/23 09:47:39;;;;;;;7.13;4.20;;;;;;;12.93;64.09;97752.97;5010075;28;20053;-79
2021/10/23 09:50:14;;;;;;;5.70;2.70;;;;;;;12.86;57.93;97751.22;5003252;28;20051;-78
2021/10/23 09:53:02;;;;;;;6.75;3.35;;;;;;;12.80;60.59;97762.34;5016320;28;20046;-78
2021/10/23 09:55:35;;;;;;;5.63;3.45;;;;;;;12.71;66.14;97759.75;5000685;28;20058;-80
2021/10/23 09:58:10;;;;;;;4.50;3.53;;;;;;;12.74;62.67;97759.41;5000345;28;20046;-76
2021/10/23 10:00:38;;;;;;;7.03;3.70;;;;;;;12.75;62.66;97761.06;4999907;28;20061;-77
2021/10/23 10:03:07;;;;;;;5.75;3.50;;;;;;;12.77;64.04;97766.13;4999791;28;20054;-77
2021/10/23 10:05:35;;;;;;;6.72;4.13;;;;;;;12.78;64.36;97765.13;4999284;28;20050;-77
2021/10/23 10:08:09;;;;;;;4.32;2.78;;;;;;;12.73;59.28;97757.78;4999870;28;20444;-77
2021/10/23 10:10:42;;;;;;;6.68;3.22;;;;;;;12.73;59.66;97763.00;4998478;28;20561;-77
2021/10/23 10:13:11;;;;;;;5.28;2.75;;;;;;;12.74;58.77;97769.88;4997994;28;20459;-76
2021/10/23 10:15:40;;;;;;;4.15;3.20;;;;;;;12.75;63.13;97770.72;4999793;28;20054;-86
2021/10/23 10:18:09;;;;;;;7.00;4.22;;;;;;;12.76;63.87;97772.34;4998907;28;20133;-77
2021/10/23 10:20:38;;;;;;;4.47;3.28;;;;;;;12.67;63.32;97761.06;5000816;28;20050;-80
2021/10/23 10:23:10;;;;;;;4.57;3.38;;;;;;;12.62;63.58;97763.38;5030204;23;20042;-76
2021/10/23 10:25:39;;;;;;;6.07;3.15;;;;;;;12.60;65.19;97760.09;5013268;28;20050;-77
2021/10/23 10:28:12;;;;;;;4.18;3.22;;;;;;;12.56;66.19;97766.63;5013589;28;20081;-77
2021/10/23 10:30:45;;;;;;;5.82;4.28;;;;;;;12.53;66.91;97762.56;5013221;28;20046;-74
2021/10/23 10:33:23;;;;;;;6.38;3.90;;;;;;;12.49;62.58;97761.25;5013444;28;20046;-75
2021/10/23 10:36:28;;;;;;;6.13;3.63;;;;;;;12.44;60.15;97754.88;5013387;28;20472;-75
2021/10/23 10:39:21;;;;;;;4.85;3.55;;;;;;;12.44;67.62;97757.47;5013318;28;20068;-75
2021/10/23 10:42:45;;;;;;;4.75;3.70;;;;;;;12.52;66.34;97755.69;5013314;28;20061;-75
2021/10/23 10:45:30;;;;;;;4.90;3.90;;;;;;;13.14;63.68;97760.28;5015695;28;20050;-75
2021/10/23 10:48:15;;;;;;;5.43;2.90;;;;;;;14.08;56.90;97754.22;5015109;28;20056;-75
2021/10/23 10:50:45;;;;;;;5.63;3.00;;;;;;;15.03;59.32;97751.09;5011695;28;20058;-75
2021/10/23 10:53:20;;;;;;;4.93;2.95;;;;;;;15.96;59.21;97756.63;4995480;28;20512;-75
2021/10/23 10:55:50;;;;;;;4.85;2.55;;;;;;;16.81;50.93;97750.47;4995297;28;20508;-74
2021/10/23 10:58:20;;;;;;;5.47;2.40;;;;;;;17.63;46.39;97754.09;4994532;28;20042;-75
2021/10/23 11:01:16;;;;;;;3.70;2.70;;;;;;;18.20;45.65;97756.50;4996745;28;20050;-75
2021/10/23 11:03:47;;;;;;;3.58;2.40;;;;;;;18.39;46.03;97757.50;4993056;28;20050;-74
2021/10/23 11:06:53;;;;;;;5.40;2.70;;;;;;;18.34;46.91;97752.84;4992868;28;20066;-75
2021/10/23 11:09:44;;;;;;;4.63;2.03;;;;;;;18.14;43.82;97752.00;4992584;28;20428;-74
2021/10/23 11:12:27;;;;;;;6.72;2.50;;;;;;;17.57;43.53;97754.91;4992643;28;20432;-75
2021/10/23 11:14:56;;;;;;;;;;;;;;;17.14;45.35;97749.84;4995582;28;20433;-74
2021/10/23 11:17:24;;;;;;;3.47;2.60;;;;;;;16.62;47.43;97745.88;4992924;28;19922;-75
2021/10/23 11:19:54;;;;;;;3.00;2.30;;;;;;;16.15;46.11;97747.31;4992898;28;20050;-74
2021/10/23 11:22:24;;;;;;;4.50;2.25;;;;;;;15.75;45.97;97745.09;4992893;28;20145;-74
2021/10/23 11:24:57;;;;;;;5.05;2.50;;;;;;;15.38;53.06;97748.69;4993407;28;20049;-74
2021/10/23 11:27:37;;;;;;;3.25;2.33;;;;;;;15.07;51.48;97751.53;4992884;28;20053;-75
2021/10/23 11:30:10;;;;;;;3.17;2.85;;;;;;;14.90;54.81;97756.97;4993311;28;20527;-75
2021/10/23 11:32:39;;;;;;;5.78;2.67;;;;;;;14.77;55.19;97751.53;4994246;28;20125;-74
2021/10/23 11:35:08;;;;;;;4.00;2.00;;;;;;;14.66;53.10;97750.16;5010836;28;20479;-74
2021/10/23 11:37:36;;;;;;;5.45;2.40;;;;;;;14.46;48.97;97749.81;5019656;28;20052;-74
2021/10/23 11:40:06;;;;;;;2.17;1.83;;;;;;;14.30;48.78;97740.28;5018883;28;20049;-75
2021/10/23 11:42:35;;;;;;;4.22;2.08;;;;;;;14.23;48.79;97736.72;5018721;28;20050;-73
2021/10/23 11:45:08;;;;;;;1.70;1.55;;;;;;;14.22;51.08;97740.34;5018992;28;20045;-74
2021/10/23 11:47:56;;;;;;;2.25;1.60;;;;;;;14.31;49.49;97741.09;5019414;28;20057;-74
2021/10/23 11:50:26;;;;;;;2.92;1.98;;;;;;;14.28;51.80;97746.69;5019085;28;20495;-74